createdAt,value
2022-10-11T00:02:19.286Z,6.72
2022-10-11T00:07:21.980Z,4.95
2022-10-11T00:12:23.589Z,4.65
2022-10-11T00:17:25.443Z,4.85
2022-10-11T00:22:27.828Z,4.45
2022-10-11T00:27:29.663Z,4.00
2022-10-11T00:32:34.081Z,4.00
2022-10-11T00:37:38.024Z,4.35
2022-10-11T00:42:39.887Z,3.97
2022-10-11T00:47:42.134Z,3.63
2022-10-11T00:52:50.066Z,3.30
2022-10-11T00:57:54.528Z,3.20
2022-10-11T01:02:57.733Z,3.42
2022-10-11T01:08:00.848Z,3.08
2022-10-11T01:13:35.760Z,3.17
2022-10-11T01:18:52.544Z,2.80
2022-10-11T01:24:08.786Z,3.03
2022-10-11T01:29:30.057Z,2.35
2022-10-11T01:34:47.946Z,2.50
2022-10-11T01:39:57.631Z,3.17
2022-10-11T01:45:00.229Z,3.10
2022-10-11T01:50:02.616Z,3.00
2022-10-11T01:55:24.024Z,2.60
2022-10-11T02:00:33.507Z,2.47
2022-10-11T02:05:57.460Z,3.20
2022-10-11T02:11:22.358Z,3.55
2022-10-11T02:16:30.266Z,3.83
2022-10-11T02:21:39.404Z,3.00
2022-10-11T02:26:43.870Z,4.10
2022-10-11T02:31:47.455Z,4.28
2022-10-11T02:37:02.251Z,4.63
2022-10-11T02:42:10.470Z,4.85
2022-10-11T02:47:13.105Z,4.47
2022-10-11T02:52:14.871Z,4.70
2022-10-11T02:57:16.902Z,4.68
2022-10-11T03:02:19.282Z,4.32
2022-10-11T03:07:20.906Z,4.30
2022-10-11T03:12:22.833Z,3.97
2022-10-11T03:17:36.050Z,4.07
2022-10-11T03:22:38.754Z,4.13
2022-10-11T03:27:40.383Z,4.38
2022-10-11T03:32:42.135Z,4.07
2022-10-11T03:37:44.020Z,4.53
2022-10-11T03:42:46.433Z,3.63
2022-10-11T03:47:48.333Z,3.20
2022-10-11T03:52:51.154Z,3.50
2022-10-11T03:57:52.800Z,3.10
2022-10-11T04:02:54.607Z,3.90
2022-10-11T04:07:56.624Z,4.80
2022-10-11T04:12:58.254Z,3.45
2022-10-11T04:17:59.984Z,4.10
2022-10-11T04:23:01.771Z,4.75
2022-10-11T04:28:03.501Z,5.53
2022-10-11T04:33:05.314Z,6.25
2022-10-11T04:38:06.954Z,6.22
2022-10-11T04:43:08.620Z,6.85
2022-10-11T04:48:10.287Z,6.45
2022-10-11T04:53:11.914Z,6.57
2022-10-11T04:58:13.509Z,6.50
2022-10-11T05:03:15.086Z,6.18
2022-10-11T05:08:16.936Z,6.20
2022-10-11T05:13:18.552Z,6.05
2022-10-11T05:18:20.471Z,5.97
2022-10-11T05:23:23.464Z,7.22
2022-10-11T05:28:26.009Z,6.72
2022-10-11T05:33:27.748Z,7.05
2022-10-11T05:38:29.454Z,7.38
2022-10-11T05:43:31.505Z,6.97
2022-10-11T05:48:34.737Z,6.93
2022-10-11T05:53:39.320Z,7.50
2022-10-11T05:58:41.249Z,6.50
2022-10-11T06:03:44.567Z,6.40
2022-10-11T06:08:46.608Z,6.32
2022-10-11T06:13:48.945Z,7.63
2022-10-11T06:18:54.698Z,9.10
2022-10-11T06:24:01.196Z,8.10
2022-10-11T06:29:03.749Z,8.75
2022-10-11T06:34:05.602Z,8.25
2022-10-11T06:39:07.487Z,8.55
2022-10-11T06:44:14.172Z,9.10
2022-10-11T06:49:20.672Z,10.70
2022-10-11T06:54:26.978Z,9.85
2022-10-11T06:59:32.412Z,12.60
2022-10-11T07:04:34.279Z,11.40
2022-10-11T07:09:37.342Z,11.75
2022-10-11T07:14:40.427Z,9.45
2022-10-11T07:19:42.040Z,10.23
2022-10-11T07:24:43.859Z,9.30
2022-10-11T07:29:45.520Z,8.95
2022-10-11T07:34:47.194Z,8.30
2022-10-11T07:39:49.390Z,8.10
2022-10-11T07:44:51.632Z,7.93
2022-10-11T07:49:53.226Z,7.53
2022-10-11T07:54:55.020Z,7.97
2022-10-11T07:59:56.802Z,8.10
2022-10-11T08:04:58.517Z,8.10
2022-10-11T08:10:00.143Z,8.50
2022-10-11T08:15:04.039Z,8.40
2022-10-11T08:20:05.966Z,9.02
2022-10-11T08:25:07.897Z,8.52
2022-10-11T08:30:10.490Z,7.97
2022-10-11T08:35:12.150Z,8.15
2022-10-11T08:40:21.345Z,8.90
2022-10-11T08:45:49.133Z,8.10
2022-10-11T08:50:54.557Z,7.35
2022-10-11T08:55:56.233Z,9.35
2022-10-11T09:00:59.366Z,9.07
2022-10-11T09:06:16.314Z,8.55
2022-10-11T09:11:24.897Z,8.95
2022-10-11T09:17:07.441Z,8.70
2022-10-11T09:22:24.789Z,7.50
2022-10-11T09:28:06.670Z,7.63
2022-10-11T09:33:19.086Z,8.27
2022-10-11T09:38:43.539Z,8.77
2022-10-11T09:43:48.556Z,8.50
2022-10-11T09:48:52.742Z,8.85
2022-10-11T09:54:06.425Z,7.88
2022-10-11T09:59:20.373Z,7.65
2022-10-11T10:04:21.997Z,7.90
2022-10-11T10:09:31.199Z,9.18
2022-10-11T10:14:32.817Z,7.55
2022-10-11T10:19:49.019Z,8.15
2022-10-11T10:24:51.955Z,8.15
2022-10-11T10:30:08.707Z,7.30
2022-10-11T10:35:26.215Z,8.48
2022-10-11T10:40:37.594Z,9.52
2022-10-11T10:46:14.075Z,7.85
2022-10-11T10:51:38.434Z,9.15
2022-10-11T10:57:03.265Z,8.95
2022-10-11T11:02:40.844Z,9.30
2022-10-11T11:08:00.355Z,9.52
2022-10-11T11:13:35.753Z,8.55
2022-10-11T11:18:43.656Z,8.52
2022-10-11T11:24:05.058Z,9.00
2022-10-11T11:29:24.435Z,8.45
2022-10-11T11:34:33.336Z,8.75
2022-10-11T11:39:44.986Z,8.68
2022-10-11T11:44:49.434Z,8.85
2022-10-11T11:50:00.001Z,8.20
2022-10-11T11:55:15.472Z,7.70
2022-10-11T12:00:23.486Z,8.20
2022-10-11T12:05:28.922Z,8.32
2022-10-11T12:10:36.692Z,9.27
2022-10-11T12:15:38.477Z,8.57
2022-10-11T12:20:42.009Z,7.88
2022-10-11T12:25:44.649Z,7.13
2022-10-11T12:30:50.929Z,7.47
2022-10-11T12:35:52.988Z,7.85
2022-10-11T12:41:10.699Z,6.53
2022-10-11T12:46:33.573Z,7.55
2022-10-11T12:51:57.181Z,5.78
2022-10-11T12:57:29.141Z,6.97
2022-10-11T13:02:42.674Z,7.35
2022-10-11T13:07:45.454Z,6.93
2022-10-11T13:12:49.085Z,6.95
2022-10-11T13:17:54.115Z,7.25
2022-10-11T13:22:57.034Z,7.30
2022-10-11T13:28:01.436Z,7.05
2022-10-11T13:33:09.525Z,7.50
2022-10-11T13:38:23.929Z,6.88
2022-10-11T13:43:28.574Z,6.93
2022-10-11T13:48:32.097Z,6.75
2022-10-11T13:53:34.286Z,6.43
2022-10-11T13:58:47.288Z,5.80
2022-10-11T14:04:17.345Z,6.40
2022-10-11T14:09:33.897Z,6.60
2022-10-11T14:14:35.798Z,5.63
2022-10-11T14:24:39.891Z,6.40
2022-10-11T14:30:00.261Z,6.70
2022-10-11T14:35:07.183Z,6.97
2022-10-11T14:40:18.059Z,6.03
2022-10-11T14:45:21.242Z,5.97
2022-10-11T14:50:31.966Z,5.35
2022-10-11T14:55:36.710Z,6.20
2022-10-11T15:00:38.391Z,6.30
2022-10-11T15:05:40.259Z,6.57
2022-10-11T15:10:42.170Z,6.20
2022-10-11T15:15:43.851Z,6.82
2022-10-11T15:20:46.711Z,6.50
2022-10-11T15:25:48.384Z,6.90
2022-10-11T15:30:49.990Z,6.78
2022-10-11T15:35:51.674Z,6.50
2022-10-11T15:40:54.868Z,6.53
2022-10-11T15:45:58.032Z,6.53
2022-10-11T15:50:59.897Z,6.07
2022-10-11T15:56:05.123Z,6.28
2022-10-11T16:01:14.802Z,6.93
2022-10-11T16:06:17.705Z,6.70
2022-10-11T16:11:19.525Z,6.78
2022-10-11T16:16:21.105Z,7.13
2022-10-11T16:21:24.159Z,6.88
2022-10-11T16:26:25.703Z,7.03
2022-10-11T16:31:27.808Z,6.68
2022-10-11T16:36:32.497Z,5.82
2022-10-11T16:41:34.263Z,6.43
2022-10-11T16:46:35.923Z,6.85
2022-10-11T16:51:37.458Z,6.10
2022-10-11T16:56:40.213Z,6.47
2022-10-11T17:01:42.775Z,6.60
2022-10-11T17:06:44.973Z,6.07
2022-10-11T17:11:46.716Z,5.80
2022-10-11T17:16:48.405Z,6.25
2022-10-11T17:21:50.216Z,7.70
2022-10-11T17:26:53.401Z,7.95
2022-10-11T17:31:55.464Z,7.05
2022-10-11T17:36:57.170Z,8.50
2022-10-11T17:42:03.395Z,7.78
2022-10-11T17:47:05.182Z,8.15
2022-10-11T17:52:06.808Z,7.50
2022-10-11T17:57:10.160Z,8.40
2022-10-11T18:02:11.799Z,7.95
2022-10-11T18:07:13.567Z,8.68
2022-10-11T18:12:15.186Z,8.65
2022-10-11T18:17:17.809Z,9.05
2022-10-11T18:22:19.511Z,9.38
2022-10-11T18:27:21.334Z,9.52
2022-10-11T18:32:23.957Z,9.65
2022-10-11T18:37:28.143Z,11.35
2022-10-11T18:42:29.808Z,11.27
2022-10-11T18:47:31.397Z,12.65
2022-10-11T18:52:33.105Z,13.20
2022-10-11T18:57:34.913Z,14.30
2022-10-11T19:02:36.611Z,15.77
2022-10-11T19:07:40.222Z,13.63
2022-10-11T19:12:41.814Z,13.15
2022-10-11T19:17:43.700Z,12.93
2022-10-11T19:22:46.789Z,13.88
2022-10-11T19:27:48.387Z,14.63
2022-10-11T19:32:50.460Z,14.95
2022-10-11T19:37:52.093Z,14.80
2022-10-11T19:42:53.841Z,15.23
2022-10-11T19:47:55.431Z,14.07
2022-10-11T19:52:57.205Z,14.55
2022-10-11T19:57:58.869Z,15.15
2022-10-11T20:03:01.458Z,16.10
2022-10-11T20:08:04.251Z,14.95
2022-10-11T20:13:11.680Z,15.00
2022-10-11T20:18:13.423Z,15.82
2022-10-11T20:23:18.265Z,16.38
2022-10-11T20:28:20.283Z,16.25
2022-10-11T20:33:22.243Z,15.82
2022-10-11T20:38:24.247Z,14.73
2022-10-11T20:43:26.231Z,15.25
2022-10-11T20:48:30.093Z,15.85
2022-10-11T20:53:31.755Z,15.30
2022-10-11T20:58:34.470Z,14.82
2022-10-11T21:03:36.542Z,14.95
2022-10-11T21:08:39.536Z,14.68
2022-10-11T21:13:41.252Z,15.75
2022-10-11T21:18:42.906Z,14.57
2022-10-11T21:23:47.975Z,15.73
2022-10-11T21:28:49.934Z,16.17
2022-10-11T21:33:51.884Z,16.05
2022-10-11T21:38:53.766Z,16.10
2022-10-11T21:43:56.702Z,16.00
2022-10-11T21:48:58.679Z,15.38
2022-10-11T21:54:00.820Z,15.73
2022-10-11T21:59:06.555Z,14.90
2022-10-11T22:04:11.936Z,15.38
2022-10-11T22:09:13.590Z,15.45
2022-10-11T22:14:15.734Z,15.30
2022-10-11T22:19:17.391Z,15.35
2022-10-11T22:24:19.209Z,15.25
2022-10-11T22:29:21.225Z,13.95
2022-10-11T22:34:22.992Z,14.23
2022-10-11T22:39:24.673Z,14.40
2022-10-11T22:44:26.305Z,14.45
2022-10-11T22:49:28.619Z,14.13
2022-10-11T22:54:30.185Z,15.27
2022-10-11T22:59:32.957Z,15.23
2022-10-11T23:04:34.905Z,13.90
2022-10-11T23:09:36.564Z,15.60
2022-10-11T23:14:38.283Z,14.18
2022-10-11T23:19:40.376Z,14.90
2022-10-11T23:24:42.568Z,15.18
2022-10-11T23:29:46.120Z,14.45
2022-10-11T23:34:47.779Z,14.23
2022-10-11T23:39:49.620Z,14.48
2022-10-11T23:44:52.871Z,14.77
2022-10-11T23:49:54.621Z,14.25
2022-10-11T23:54:56.289Z,14.63
